Time;durP1;ratioP1;P1;durP2;ratioP2;P2;SDS_P1;SDS_P2;PMS_P1;PMS_P2;Temp;Humidity;BMP_temperature;BMP_pressure;BME280_temperature;BME280_humidity;BME280_pressure;Samples;Min_cycle;Max_cycle;Signal;HPM_P1;HPM_P2
2022/06/15 00:00:29;;;;;;;4.68;2.58;;;;;;;;;;5051754;28;20453;-77
2022/06/15 00:02:55;;;;;;;8.43;2.70;;;;;;;;;;5051658;28;20043;-77
2022/06/15 00:05:21;;;;;;;5.60;2.42;;;;;;;;;;5051645;28;20025;-77
2022/06/15 00:07:47;;;;;;;5.38;2.65;;;;;;;;;;5051739;28;20491;-77
2022/06/15 00:10:13;;;;;;;5.28;2.63;;;;;;;;;;5051863;28;20033;-77
2022/06/15 00:12:39;;;;;;;9.57;3.08;;;;;;;;;;5051537;28;20025;-77
2022/06/15 00:15:06;;;;;;;6.40;3.05;;;;;;;;;;5051507;28;20075;-77
2022/06/15 00:17:32;;;;;;;5.32;2.70;;;;;;;;;;5051476;28;20448;-77
2022/06/15 00:19:58;;;;;;;3.72;2.30;;;;;;;;;;5051485;28;20463;-77
2022/06/15 00:22:25;;;;;;;8.02;2.45;;;;;;;;;;5051513;28;20032;-77
2022/06/15 00:24:51;;;;;;;6.05;2.70;;;;;;;;;;5051422;28;20024;-77
2022/06/15 00:27:17;;;;;;;6.15;2.75;;;;;;;;;;5051438;28;20017;-77
2022/06/15 00:29:43;;;;;;;6.03;2.80;;;;;;;;;;5051422;28;20036;-77
2022/06/15 00:32:09;;;;;;;7.20;2.65;;;;;;;;;;5034076;28;20030;-77
2022/06/15 00:34:35;;;;;;;6.72;3.17;;;;;;;;;;5031463;28;20029;-77
2022/06/15 00:37:01;;;;;;;6.25;2.40;;;;;;;;;;5033657;28;20780;-78
2022/06/15 00:39:28;;;;;;;5.25;2.33;;;;;;;;;;5035544;28;20113;-77
2022/06/15 00:41:54;;;;;;;6.63;3.20;;;;;;;;;;5035581;28;20398;-77
2022/06/15 00:44:20;;;;;;;5.68;2.50;;;;;;;;;;5035473;28;20053;-77
2022/06/15 00:46:47;;;;;;;6.35;2.60;;;;;;;;;;5035361;28;20061;-77
2022/06/15 00:49:16;;;;;;;7.55;2.08;;;;;;;;;;5035171;28;20415;-77
2022/06/15 00:51:42;;;;;;;6.70;2.90;;;;;;;;;;5035440;28;20048;-77
2022/06/15 00:54:09;;;;;;;6.28;2.60;;;;;;;;;;5035351;28;20048;-77
2022/06/15 00:56:36;;;;;;;6.70;2.95;;;;;;;;;;5035353;28;20033;-77
2022/06/15 00:59:05;;;;;;;5.85;2.97;;;;;;;;;;5035220;28;20385;-77
2022/06/15 01:01:31;;;;;;;8.57;3.03;;;;;;;;;;5035011;28;20049;-77
2022/06/15 01:03:58;;;;;;;4.38;3.03;;;;;;;;;;5035213;28;20037;-77
2022/06/15 01:06:24;;;;;;;9.52;4.20;;;;;;;;;;5050838;28;20713;-77
2022/06/15 01:08:59;;;;;;;8.55;3.10;;;;;;;;;;5055032;28;20040;-77
2022/06/15 01:11:34;;;;;;;4.35;2.63;;;;;;;;;;5054945;28;20037;-77
2022/06/15 01:14:12;;;;;;;6.45;2.75;;;;;;;;;;5054891;28;20522;-77
2022/06/15 01:16:41;;;;;;;8.48;3.05;;;;;;;;;;5054691;28;20025;-77
2022/06/15 01:19:26;;;;;;;6.45;2.92;;;;;;;;;;5054665;28;20055;-77
2022/06/15 01:21:55;;;;;;;7.50;3.10;;;;;;;;;;5054698;28;20104;-77
2022/06/15 01:24:31;;;;;;;7.25;2.92;;;;;;;;;;5054528;28;20025;-77
2022/06/15 01:27:17;;;;;;;10.13;3.33;;;;;;;;;;5054611;28;20037;-77
2022/06/15 01:29:46;;;;;;;7.82;2.65;;;;;;;;;;5047408;28;20041;-77
2022/06/15 01:32:18;;;;;;;9.60;3.35;;;;;;;;;;5036680;28;20770;-78
2022/06/15 01:34:53;;;;;;;8.38;3.17;;;;;;;;;;5034644;28;20084;-77
2022/06/15 01:37:24;;;;;;;6.13;3.10;;;;;;;;;;5034597;28;20404;-77
2022/06/15 01:39:58;;;;;;;8.07;2.90;;;;;;;;;;5034503;28;20417;-77
2022/06/15 01:42:57;;;;;;;6.05;3.00;;;;;;;;;;5034298;28;20044;-77
2022/06/15 01:45:25;;;;;;;7.50;3.05;;;;;;;;;;4992743;28;20039;-77
2022/06/15 01:47:52;;;;;;;5.72;3.00;;;;;;;;;;4992561;28;20481;-77
2022/06/15 01:50:21;;;;;;;7.32;3.22;;;;;;;;;;4992398;28;20046;-77
2022/06/15 01:52:50;;;;;;;5.75;3.00;;;;;;;;;;4992668;28;20042;-77
2022/06/15 01:55:42;;;;;;;5.85;2.78;;;;;;;;;;4992469;28;20517;-77
2022/06/15 01:58:09;;;;;;;11.20;3.20;;;;;;;;;;4984993;28;20054;-77
2022/06/15 02:00:36;;;;;;;7.70;2.92;;;;;;;;;;4992382;28;20278;-77
2022/06/15 02:03:04;;;;;;;6.30;3.47;;;;;;;;;;4992227;28;20472;-77
2022/06/15 02:05:39;;;;;;;12.32;4.40;;;;;;;;;;4992091;28;20121;-77
2022/06/15 02:08:05;;;;;;;11.80;3.65;;;;;;;;;;4992317;28;20430;-77
2022/06/15 02:10:34;;;;;;;6.50;3.35;;;;;;;;;;4992119;28;20041;-77
2022/06/15 02:13:00;;;;;;;5.07;3.35;;;;;;;;;;4992066;28;20117;-77
2022/06/15 02:15:27;;;;;;;10.32;3.70;;;;;;;;;;4991947;28;20068;-77
2022/06/15 02:17:54;;;;;;;7.00;3.05;;;;;;;;;;4991961;28;20045;-77
2022/06/15 02:20:24;;;;;;;7.93;3.42;;;;;;;;;;5007072;28;20037;-77
2022/06/15 02:22:51;;;;;;;9.88;3.25;;;;;;;;;;5053522;28;20037;-77
2022/06/15 02:25:19;;;;;;;6.65;3.08;;;;;;;;;;5053324;28;20032;-78
2022/06/15 02:27:46;;;;;;;6.00;2.78;;;;;;;;;;5053426;28;20039;-77
2022/06/15 02:30:18;;;;;;;8.02;3.42;;;;;;;;;;5053253;28;20029;-76
2022/06/15 02:32:44;;;;;;;9.73;3.47;;;;;;;;;;5053222;28;20029;-77
2022/06/15 02:35:11;;;;;;;10.13;3.22;;;;;;;;;;5053415;28;20029;-77
2022/06/15 02:37:37;;;;;;;6.03;3.13;;;;;;;;;;5053310;28;20029;-77
2022/06/15 02:40:03;;;;;;;9.23;3.15;;;;;;;;;;5053228;28;20032;-77
2022/06/15 02:42:31;;;;;;;9.32;3.80;;;;;;;;;;5053042;28;20471;-77
2022/06/15 02:45:09;;;;;;;7.10;3.30;;;;;;;;;;5053126;28;20025;-77
2022/06/15 02:47:38;;;;;;;10.02;3.63;;;;;;;;;;5053075;28;20036;-77
2022/06/15 02:50:05;;;;;;;7.63;3.40;;;;;;;;;;5052797;28;20495;-77
2022/06/15 02:52:32;;;;;;;14.15;3.50;;;;;;;;;;5052916;28;20028;-77
2022/06/15 02:54:59;;;;;;;7.25;3.30;;;;;;;;;;5052994;28;20024;-77
2022/06/15 02:57:25;;;;;;;4.70;2.92;;;;;;;;;;5052887;28;20039;-77
2022/06/15 02:59:52;;;;;;;7.70;3.30;;;;;;;;;;5052319;28;20036;-77
2022/06/15 03:02:19;;;;;;;7.13;3.17;;;;;;;;;;5052556;28;20464;-77
2022/06/15 03:04:46;;;;;;;9.60;3.53;;;;;;;;;;5050804;28;20052;-77
2022/06/15 03:07:13;;;;;;;8.98;2.92;;;;;;;;;;5046881;28;20128;-77
2022/06/15 03:09:39;;;;;;;5.38;3.13;;;;;;;;;;5052662;28;20049;-77
2022/06/15 03:12:06;;;;;;;5.70;3.25;;;;;;;;;;5052542;28;20036;-77
2022/06/15 03:14:32;;;;;;;9.18;3.28;;;;;;;;;;5052586;28;20048;-77
2022/06/15 03:16:59;;;;;;;9.90;3.63;;;;;;;;;;5052326;28;20108;-77
2022/06/15 03:19:25;;;;;;;8.77;3.28;;;;;;;;;;5052344;28;20705;-77
2022/06/15 03:21:51;;;;;;;10.10;3.40;;;;;;;;;;5052350;28;20027;-77
2022/06/15 03:24:17;;;;;;;7.60;3.38;;;;;;;;;;5052057;28;20017;-76
2022/06/15 03:26:43;;;;;;;5.72;3.15;;;;;;;;;;5052222;28;20028;-77
2022/06/15 03:29:09;;;;;;;6.45;3.47;;;;;;;;;;5052180;28;20017;-77
2022/06/15 03:31:35;;;;;;;6.72;3.63;;;;;;;;;;5039414;28;20105;-77
2022/06/15 03:34:01;;;;;;;7.82;3.58;;;;;;;;;;5032312;28;20029;-77
2022/06/15 03:36:27;;;;;;;11.75;3.47;;;;;;;;;;5032309;28;20402;-77
2022/06/15 03:38:53;;;;;;;7.18;3.67;;;;;;;;;;5032145;28;20151;-77
2022/06/15 03:41:20;;;;;;;9.30;3.50;;;;;;;;;;5032058;28;20383;-77
2022/06/15 03:43:46;;;;;;;6.43;3.33;;;;;;;;;;5032065;28;20117;-77
2022/06/15 03:46:13;;;;;;;4.53;2.85;;;;;;;;;;5031936;28;20490;-77
2022/06/15 03:48:39;;;;;;;7.28;3.20;;;;;;;;;;5031946;28;20468;-77
2022/06/15 03:51:05;;;;;;;7.88;3.38;;;;;;;;;;5031921;28;20392;-77
2022/06/15 03:53:31;;;;;;;5.90;3.20;;;;;;;;;;5031984;28;20087;-77
2022/06/15 03:55:57;;;;;;;9.88;3.08;;;;;;;;;;5031812;28;20026;-77
2022/06/15 03:58:23;;;;;;;5.88;3.38;;;;;;;;;;5031993;28;20030;-77
2022/06/15 04:00:49;;;;;;;5.75;3.15;;;;;;;;;;5031800;28;20025;-77
2022/06/15 04:03:15;;;;;;;6.90;3.30;;;;;;;;;;5031817;28;20022;-77
2022/06/15 04:05:52;;;;;;;9.48;3.22;;;;;;;;;;5041542;28;20044;-77
2022/06/15 04:08:35;;;;;;;8.07;3.30;;;;;;;;;;5051859;28;20089;-77
2022/06/15 04:14:06;;;;;;;8.80;3.13;;;;;;;;;;5051661;28;20036;-77
2022/06/15 04:16:34;;;;;;;10.18;3.53;;;;;;;;;;5051461;28;20048;-77
2022/06/15 04:19:02;;;;;;;7.50;3.20;;;;;;;;;;5051650;28;20100;-77
2022/06/15 04:21:28;;;;;;;8.88;3.22;;;;;;;;;;5051476;28;20104;-77
2022/06/15 04:23:54;;;;;;;8.18;3.10;;;;;;;;;;5051481;28;20025;-77
2022/06/15 04:26:20;;;;;;;9.63;3.45;;;;;;;;;;5051344;28;20371;-77
2022/06/15 04:28:46;;;;;;;8.95;2.58;;;;;;;;;;5051412;28;20104;-77
2022/06/15 04:31:12;;;;;;;8.45;3.20;;;;;;;;;;5041818;28;20025;-77
2022/06/15 04:33:38;;;;;;;6.32;2.90;;;;;;;;;;5031560;28;20037;-77
2022/06/15 04:36:05;;;;;;;7.75;2.95;;;;;;;;;;5031345;28;20441;-77
2022/06/15 04:38:31;;;;;;;12.00;3.10;;;;;;;;;;5031346;28;20026;-77
2022/06/15 04:40:57;;;;;;;7.63;3.20;;;;;;;;;;5031276;28;20030;-77
2022/06/15 04:43:23;;;;;;;5.00;2.60;;;;;;;;;;5031339;28;20036;-77
2022/06/15 04:45:49;;;;;;;12.20;3.20;;;;;;;;;;5039212;28;20048;-77
2022/06/15 04:48:15;;;;;;;8.70;3.03;;;;;;;;;;5051038;28;20025;-76
2022/06/15 04:50:44;;;;;;;7.93;2.80;;;;;;;;;;5050711;28;20459;-77
2022/06/15 04:53:11;;;;;;;11.50;2.90;;;;;;;;;;5050913;28;20051;-77
2022/06/15 04:55:37;;;;;;;6.65;2.95;;;;;;;;;;5050795;28;20025;-77
2022/06/15 04:58:04;;;;;;;8.93;2.60;;;;;;;;;;5050857;28;20717;-76
2022/06/15 05:00:36;;;;;;;14.98;2.83;;;;;;;;;;5050671;28;20029;-76
2022/06/15 05:03:02;;;;;;;10.23;2.60;;;;;;;;;;5050554;28;20029;-77
2022/06/15 05:05:29;;;;;;;7.30;3.25;;;;;;;;;;5048093;28;20029;-76
2022/06/15 05:07:56;;;;;;;6.65;2.50;;;;;;;;;;5050787;28;20495;-77
2022/06/15 05:10:25;;;;;;;5.10;2.70;;;;;;;;;;5050654;28;20040;-76
2022/06/15 05:12:51;;;;;;;7.55;2.70;;;;;;;;;;5050603;28;20329;-76
2022/06/15 05:15:18;;;;;;;7.82;3.03;;;;;;;;;;5050503;28;20032;-77
2022/06/15 05:17:45;;;;;;;7.28;2.72;;;;;;;;;;5050519;28;20134;-77
2022/06/15 05:20:14;;;;;;;6.05;3.30;;;;;;;;;;5050587;28;20552;-76
2022/06/15 05:22:43;;;;;;;8.55;2.70;;;;;;;;;;5051987;28;20029;-77
2022/06/15 05:25:09;;;;;;;7.90;2.50;;;;;;;;;;5054172;28;20108;-76
2022/06/15 05:27:39;;;;;;;4.10;2.08;;;;;;;;;;5052769;28;20108;-77
2022/06/15 05:30:11;;;;;;;9.68;2.83;;;;;;;;;;5053940;28;20555;-76
2022/06/15 05:32:37;;;;;;;;;;;;;;;;;;5052345;28;20471;-76
2022/06/15 05:35:04;;;;;;;7.47;2.40;;;;;;;;;;5054069;28;19909;-77
2022/06/15 05:37:33;;;;;;;12.32;2.92;;;;;;;;;;5054161;28;20382;-77
2022/06/15 05:39:59;;;;;;;7.15;2.58;;;;;;;;;;5054017;28;20025;-77
2022/06/15 05:42:29;;;;;;;8.90;2.20;;;;;;;;;;5052646;28;20090;-76
2022/06/15 05:44:55;;;;;;;7.78;2.55;;;;;;;;;;5053807;28;20056;-77
2022/06/15 05:47:22;;;;;;;9.77;2.28;;;;;;;;;;5054177;28;20446;-77
2022/06/15 05:49:48;;;;;;;6.28;2.28;;;;;;;;;;5052516;28;20487;-77
2022/06/15 05:52:14;;;;;;;7.35;2.55;;;;;;;;;;5053438;28;20039;-77
2022/06/15 05:54:41;;;;;;;7.43;2.55;;;;;;;;;;5053692;28;20502;-77
2022/06/15 05:57:18;;;;;;;11.07;2.30;;;;;;;;;;5053593;28;20033;-77
2022/06/15 05:59:44;;;;;;;5.03;1.98;;;;;;;;;;5053919;28;20104;-77
2022/06/15 06:02:11;;;;;;;4.13;1.88;;;;;;;;;;5053049;28;20031;-77
2022/06/15 06:04:40;;;;;;;9.45;2.25;;;;;;;;;;5052511;28;20394;-77
2022/06/15 06:07:07;;;;;;;6.88;1.80;;;;;;;;;;5033718;28;20400;-77
2022/06/15 06:09:33;;;;;;;6.05;2.10;;;;;;;;;;5032347;28;20487;-77
2022/06/15 06:11:59;;;;;;;9.30;1.88;;;;;;;;;;5033627;28;20021;-77
2022/06/15 06:14:34;;;;;;;6.10;2.20;;;;;;;;;;5033412;28;20037;-77
2022/06/15 06:17:05;;;;;;;5.95;1.80;;;;;;;;;;5033650;28;20032;-77
2022/06/15 06:19:37;;;;;;;11.13;1.90;;;;;;;;;;5033573;28;20025;-77
2022/06/15 06:22:03;;;;;;;13.75;2.22;;;;;;;;;;5033533;28;20037;-77
2022/06/15 06:24:30;;;;;;;6.43;1.75;;;;;;;;;;5047674;28;20021;-77
2022/06/15 06:27:00;;;;;;;12.15;3.53;;;;;;;;;;5051637;28;20399;-78
2022/06/15 06:29:29;;;;;;;8.20;1.88;;;;;;;;;;5050677;28;20109;-77
2022/06/15 06:31:58;;;;;;;8.60;2.10;;;;;;;;;;5052906;28;20108;-77
2022/06/15 06:34:26;;;;;;;8.55;1.90;;;;;;;;;;5052363;28;20414;-77
2022/06/15 06:36:53;;;;;;;12.05;1.88;;;;;;;;;;5053519;28;20017;-76
2022/06/15 06:39:20;;;;;;;10.82;2.47;;;;;;;;;;5053469;28;20036;-77
2022/06/15 06:41:46;;;;;;;4.95;1.90;;;;;;;;;;5053203;28;20040;-77
2022/06/15 06:44:13;;;;;;;6.45;1.83;;;;;;;;;;5053211;28;20040;-77
2022/06/15 06:46:44;;;;;;;9.35;1.85;;;;;;;;;;5051639;28;20467;-77
2022/06/15 06:49:13;;;;;;;5.05;1.45;;;;;;;;;;5052941;28;20352;-78
2022/06/15 06:51:40;;;;;;;5.78;1.67;;;;;;;;;;5053024;28;20380;-77
2022/06/15 06:54:07;;;;;;;5.57;1.63;;;;;;;;;;5053019;28;20025;-77
2022/06/15 06:56:37;;;;;;;7.47;2.00;;;;;;;;;;5052775;28;20032;-77
2022/06/15 06:59:07;;;;;;;7.68;1.85;;;;;;;;;;5052728;28;20422;-77
2022/06/15 07:01:34;;;;;;;5.05;1.60;;;;;;;;;;5052771;28;20384;-75
2022/06/15 07:04:00;;;;;;;7.50;1.50;;;;;;;;;;5052979;28;20017;-77
2022/06/15 07:06:26;;;;;;;11.13;2.10;;;;;;;;;;5052825;28;20029;-79
2022/06/15 07:08:53;;;;;;;6.07;1.30;;;;;;;;;;5052817;28;20095;-78
2022/06/15 07:11:21;;;;;;;8.75;1.55;;;;;;;;;;5052430;28;20017;-79
2022/06/15 07:13:48;;;;;;;8.27;2.03;;;;;;;;;;5052286;28;20550;-77
2022/06/15 07:16:17;;;;;;;5.53;1.42;;;;;;;;;;5053209;28;20066;-81
2022/06/15 07:18:45;;;;;;;9.27;2.00;;;;;;;;;;5053737;28;20044;-81
2022/06/15 07:21:16;;;;;;;7.75;1.60;;;;;;;;;;5053506;28;20021;-78
2022/06/15 07:23:43;;;;;;;5.28;1.38;;;;;;;;;;5053724;28;20033;-79
2022/06/15 07:26:13;;;;;;;7.85;1.48;;;;;;;;;;5052798;28;20029;-79
2022/06/15 07:28:42;;;;;;;5.72;1.60;;;;;;;;;;5052785;28;20021;-82
2022/06/15 07:31:09;;;;;;;6.13;1.55;;;;;;;;;;5044457;28;20056;-87
2022/06/15 07:33:39;;;;;;;4.38;1.40;;;;;;;;;;5034284;28;20131;-86
2022/06/15 07:36:06;;;;;;;6.35;1.45;;;;;;;;;;5036538;28;20024;-79
2022/06/15 07:38:35;;;;;;;6.90;2.30;;;;;;;;;;5052411;28;20032;-83
2022/06/15 07:41:02;;;;;;;8.75;1.42;;;;;;;;;;5053362;28;20052;-86
2022/06/15 07:43:31;;;;;;;6.82;1.42;;;;;;;;;;5052546;28;20025;-78
2022/06/15 07:45:59;;;;;;;4.30;1.35;;;;;;;;;;5053810;28;20017;-78
2022/06/15 07:51:28;;;;;;;4.22;1.40;;;;;;;;;;5051269;28;20440;-75
2022/06/15 07:53:54;;;;;;;6.72;1.48;;;;;;;;;;5050952;28;20043;-75
2022/06/15 07:56:20;;;;;;;8.82;1.27;;;;;;;;;;5051539;28;20439;-75
2022/06/15 07:58:46;;;;;;;4.05;1.30;;;;;;;;;;5050666;28;20021;-75
2022/06/15 08:01:13;;;;;;;2.88;1.00;;;;;;;;;;5050220;28;20040;-75
2022/06/15 08:03:39;;;;;;;4.32;1.40;;;;;;;;;;5051043;28;20104;-75
2022/06/15 08:06:05;;;;;;;8.70;1.80;;;;;;;;;;5038056;28;20095;-75
2022/06/15 08:08:31;;;;;;;2.75;1.02;;;;;;;;;;5030052;28;20425;-75
2022/06/15 08:10:57;;;;;;;3.83;1.00;;;;;;;;;;5031534;28;20028;-75
2022/06/15 08:13:23;;;;;;;6.72;1.27;;;;;;;;;;5029947;28;20332;-75
2022/06/15 08:15:50;;;;;;;4.55;1.42;;;;;;;;;;5031075;28;20028;-75
2022/06/15 08:18:28;;;;;;;4.22;1.42;;;;;;;;;;5031694;28;20022;-75
2022/06/15 08:20:57;;;;;;;6.13;1.60;;;;;;;;;;5030434;28;20040;-75
2022/06/15 08:23:25;;;;;;;6.05;1.27;;;;;;;;;;5031480;28;20022;-76
2022/06/15 08:25:53;;;;;;;9.52;1.35;;;;;;;;;;5031500;28;20029;-75
2022/06/15 08:28:20;;;;;;;5.18;1.10;;;;;;;;;;5031556;28;20025;-75
2022/06/15 08:30:46;;;;;;;6.65;1.40;;;;;;;;;;5029935;28;20026;-75
2022/06/15 08:33:13;;;;;;;3.50;1.00;;;;;;;;;;5031576;28;20041;-75
2022/06/15 08:35:40;;;;;;;5.53;1.10;;;;;;;;;;5031275;28;20033;-75
2022/06/15 08:38:07;;;;;;;6.30;1.45;;;;;;;;;;5031489;28;20037;-75
2022/06/15 08:40:37;;;;;;;5.28;1.27;;;;;;;;;;5031491;28;20491;-75
2022/06/15 08:43:15;;;;;;;5.05;1.33;;;;;;;;;;5031135;28;20025;-75
2022/06/15 08:45:41;;;;;;;6.22;1.13;;;;;;;;;;5031442;28;20108;-75
2022/06/15 08:48:10;;;;;;;4.32;1.50;;;;;;;;;;5031362;28;20033;-75
2022/06/15 08:50:51;;;;;;;2.97;1.00;;;;;;;;;;5030589;28;20041;-75
2022/06/15 08:53:23;;;;;;;6.05;1.60;;;;;;;;;;5031548;28;20040;-75
2022/06/15 08:55:49;;;;;;;;;;;;;;;;;;5031598;28;20026;-75
2022/06/15 08:58:21;;;;;;;4.93;1.25;;;;;;;;;;5033682;28;19909;-76
2022/06/15 09:00:47;;;;;;;7.60;1.73;;;;;;;;;;5035165;28;20079;-75
2022/06/15 09:03:21;;;;;;;2.58;1.02;;;;;;;;;;5035089;28;20025;-76
2022/06/15 09:06:00;;;;;;;6.90;1.30;;;;;;;;;;5045686;28;20029;-76
2022/06/15 09:08:41;;;;;;;7.30;1.60;;;;;;;;;;5055060;28;20028;-75
2022/06/15 09:11:07;;;;;;;8.57;1.52;;;;;;;;;;5054970;28;20032;-76
2022/06/15 09:13:39;;;;;;;7.75;1.50;;;;;;;;;;5053629;28;20025;-75
2022/06/15 09:16:05;;;;;;;;;;;;;;;;;;5053866;28;20134;-76
2022/06/15 09:18:35;;;;;;;4.78;1.08;;;;;;;;;;5054916;28;20427;-76
2022/06/15 09:21:04;;;;;;;4.53;1.08;;;;;;;;;;5054791;28;20086;-75
2022/06/15 09:23:41;;;;;;;5.43;1.30;;;;;;;;;;5054652;28;20021;-75
2022/06/15 09:26:10;;;;;;;4.22;1.33;;;;;;;;;;5054656;28;20048;-75
2022/06/15 09:28:52;;;;;;;3.40;1.10;;;;;;;;;;5054640;28;20036;-76
2022/06/15 09:31:18;;;;;;;;;;;;;;;;;;5044661;28;20038;-76
2022/06/15 09:33:47;;;;;;;2.72;1.00;;;;;;;;;;5034496;28;19948;-76
2022/06/15 09:36:17;;;;;;;6.82;1.75;;;;;;;;;;5034597;28;20048;-76
2022/06/15 09:38:43;;;;;;;7.68;1.30;;;;;;;;;;5034609;28;20025;-75
2022/06/15 09:41:14;;;;;;;3.80;1.65;;;;;;;;;;5034179;28;20081;-75
2022/06/15 09:43:44;;;;;;;4.88;1.25;;;;;;;;;;5034344;28;20068;-76
2022/06/15 09:46:18;;;;;;;5.90;1.23;;;;;;;;;;5034223;28;20042;-76
2022/06/15 09:48:49;;;;;;;5.05;1.48;;;;;;;;;;5034263;28;20437;-76
2022/06/15 09:51:15;;;;;;;5.43;1.42;;;;;;;;;;5034143;28;20407;-75
2022/06/15 09:53:49;;;;;;;4.18;1.00;;;;;;;;;;5033912;28;20037;-76
2022/06/15 09:56:18;;;;;;;5.00;1.33;;;;;;;;;;5033946;28;20483;-76
2022/06/15 09:58:48;;;;;;;3.95;1.50;;;;;;;;;;5033942;28;20569;-76
2022/06/15 10:01:15;;;;;;;4.72;1.33;;;;;;;;;;5033666;28;20046;-76
2022/06/15 10:03:46;;;;;;;5.72;1.20;;;;;;;;;;5034060;28;20108;-76
2022/06/15 10:06:15;;;;;;;3.28;1.50;;;;;;;;;;5033937;28;20126;-76
2022/06/15 10:08:41;;;;;;;9.88;1.25;;;;;;;;;;5032811;28;20026;-76
2022/06/15 10:11:11;;;;;;;9.07;1.80;;;;;;;;;;5033789;28;20029;-76
2022/06/15 10:13:38;;;;;;;4.43;1.42;;;;;;;;;;5033775;28;20053;-76
2022/06/15 10:16:24;;;;;;;3.63;1.40;;;;;;;;;;5033724;28;20040;-76
2022/06/15 10:18:52;;;;;;;3.80;1.33;;;;;;;;;;5033858;28;20425;-76
2022/06/15 10:21:23;;;;;;;4.25;1.80;;;;;;;;;;5033765;28;20053;-76
2022/06/15 10:23:55;;;;;;;5.90;1.60;;;;;;;;;;5033832;28;20033;-76
2022/06/15 10:26:28;;;;;;;2.13;1.13;;;;;;;;;;5033491;28;20030;-76
2022/06/15 10:28:55;;;;;;;3.28;1.20;;;;;;;;;;5033631;28;20083;-76
2022/06/15 10:31:39;;;;;;;5.38;1.30;;;;;;;;;;5033162;28;20021;-76
2022/06/15 10:34:18;;;;;;;6.82;1.67;;;;;;;;;;5033567;28;20517;-75
2022/06/15 10:36:44;;;;;;;4.05;1.33;;;;;;;;;;5033588;28;20013;-76
2022/06/15 10:39:23;;;;;;;3.35;1.52;;;;;;;;;;5033184;28;20021;-76
2022/06/15 10:41:49;;;;;;;5.03;1.20;;;;;;;;;;5033084;28;20100;-76
2022/06/15 10:44:18;;;;;;;5.63;1.67;;;;;;;;;;5033187;28;20018;-76
2022/06/15 10:46:49;;;;;;;6.32;1.50;;;;;;;;;;5033072;28;20060;-76
2022/06/15 10:49:15;;;;;;;3.70;1.38;;;;;;;;;;5033151;28;20474;-76
2022/06/15 10:51:41;;;;;;;2.88;1.20;;;;;;;;;;5032960;28;20131;-76
2022/06/15 10:54:22;;;;;;;8.82;1.40;;;;;;;;;;5033149;28;20030;-76
2022/06/15 11:02:26;;;;;;;3.95;1.30;;;;;;;;;;5033051;28;20041;-75
2022/06/15 11:04:56;;;;;;;4.25;1.10;;;;;;;;;;5033075;28;20124;-77
2022/06/15 11:07:22;;;;;;;5.25;1.40;;;;;;;;;;5032996;28;20022;-76
2022/06/15 11:09:54;;;;;;;7.15;1.95;;;;;;;;;;5032781;28;20021;-76
2022/06/15 11:12:40;;;;;;;7.10;1.73;;;;;;;;;;5032659;28;20149;-76
2022/06/15 11:15:21;;;;;;;3.13;1.30;;;;;;;;;;5025542;28;20049;-76
2022/06/15 11:18:02;;;;;;;5.60;1.30;;;;;;;;;;5032527;28;20032;-76
2022/06/15 11:20:28;;;;;;;5.95;1.48;;;;;;;;;;5032071;28;20346;-76
2022/06/15 11:22:56;;;;;;;3.35;1.33;;;;;;;;;;5032655;28;20480;-76
2022/06/15 11:25:28;;;;;;;7.10;1.35;;;;;;;;;;5032529;28;20100;-77
2022/06/15 11:28:00;;;;;;;4.68;1.25;;;;;;;;;;5032400;28;20017;-76
2022/06/15 11:30:28;;;;;;;5.53;1.50;;;;;;;;;;5035305;28;20028;-76
2022/06/15 11:33:13;;;;;;;5.43;1.45;;;;;;;;;;5052687;28;20083;-76
2022/06/15 11:35:42;;;;;;;4.85;1.13;;;;;;;;;;5052725;28;20032;-76
2022/06/15 11:38:11;;;;;;;4.47;1.40;;;;;;;;;;5052909;28;20075;-76
2022/06/15 11:40:40;;;;;;;3.35;1.13;;;;;;;;;;5052644;28;20033;-76
2022/06/15 11:43:24;;;;;;;4.45;1.13;;;;;;;;;;5052475;28;20441;-76
2022/06/15 11:46:02;;;;;;;3.45;1.30;;;;;;;;;;5052436;28;20025;-76
2022/06/15 11:48:45;;;;;;;8.02;1.25;;;;;;;;;;5052518;28;20435;-76
2022/06/15 11:51:17;;;;;;;4.25;1.35;;;;;;;;;;5052026;28;20075;-76
2022/06/15 11:54:01;;;;;;;6.00;1.30;;;;;;;;;;5052032;28;20025;-76
2022/06/15 11:56:32;;;;;;;5.75;1.23;;;;;;;;;;5051975;28;20431;-76
2022/06/15 11:59:05;;;;;;;5.50;1.30;;;;;;;;;;5051963;28;20025;-76
2022/06/15 12:02:03;;;;;;;7.88;1.67;;;;;;;;;;5051888;28;20020;-76
2022/06/15 12:04:52;;;;;;;3.20;1.00;;;;;;;;;;5009786;28;20044;-76
2022/06/15 12:07:30;;;;;;;6.18;1.10;;;;;;;;;;4970951;28;20043;-76
2022/06/15 12:10:03;;;;;;;5.28;1.17;;;;;;;;;;4970849;28;20077;-76
2022/06/15 12:12:39;;;;;;;3.97;1.02;;;;;;;;;;4970653;28;20527;-76
2022/06/15 12:15:13;;;;;;;2.83;1.10;;;;;;;;;;4970827;28;20042;-76
2022/06/15 12:17:45;;;;;;;4.18;0.95;;;;;;;;;;4970728;28;20043;-76
2022/06/15 12:20:14;;;;;;;4.97;1.15;;;;;;;;;;4970703;28;20146;-76
2022/06/15 12:22:58;;;;;;;5.28;1.38;;;;;;;;;;4970800;28;20146;-76
2022/06/15 12:25:33;;;;;;;6.18;1.10;;;;;;;;;;4970707;28;20027;-76
2022/06/15 12:27:59;;;;;;;2.85;1.05;;;;;;;;;;4970718;28;20034;-76
2022/06/15 12:30:28;;;;;;;6.70;1.15;;;;;;;;;;4970522;28;20045;-76
2022/06/15 12:33:11;;;;;;;5.82;1.85;;;;;;;;;;4972369;28;20580;-76
2022/06/15 12:36:15;;;;;;;4.07;1.40;;;;;;;;;;4974797;28;20058;-76
2022/06/15 12:38:49;;;;;;;5.47;1.17;;;;;;;;;;4936058;29;20055;-76
2022/06/15 12:44:06;;;;;;;2.20;1.00;;;;;;;;;;4971272;28;20145;-76
2022/06/15 12:46:32;;;;;;;3.65;1.17;;;;;;;;;;4993932;28;20030;-76
2022/06/15 12:49:12;;;;;;;4.60;1.48;;;;;;;;;;4993890;28;20396;-76
2022/06/15 12:52:04;;;;;;;6.75;1.02;;;;;;;;;;4993627;28;20603;-76
2022/06/15 12:54:30;;;;;;;;;;;;;;;;;;4986825;28;20026;-76
2022/06/15 12:57:10;;;;;;;5.90;1.23;;;;;;;;;;4993703;28;20380;-76
2022/06/15 12:59:39;;;;;;;5.07;1.40;;;;;;;;;;4993788;28;20029;-76
2022/06/15 13:02:05;;;;;;;4.45;0.80;;;;;;;;;;4993331;28;20036;-76
2022/06/15 13:04:38;;;;;;;4.20;1.27;;;;;;;;;;4993563;28;20031;-75
2022/06/15 13:07:18;;;;;;;3.13;1.10;;;;;;;;;;5013188;28;20037;-75
2022/06/15 13:10:04;;;;;;;3.55;1.17;;;;;;;;;;5026633;28;20381;-76
2022/06/15 13:12:48;;;;;;;4.10;1.00;;;;;;;;;;5035038;28;20079;-76
2022/06/15 13:15:20;;;;;;;5.15;1.15;;;;;;;;;;5035067;28;20033;-76
2022/06/15 13:18:14;;;;;;;1.85;1.00;;;;;;;;;;5035007;28;20116;-76
2022/06/15 13:20:45;;;;;;;5.15;1.40;;;;;;;;;;5034874;28;20068;-76
2022/06/15 13:23:11;;;;;;;;;;;;;;;;;;5035138;28;20549;-76
2022/06/15 13:25:49;;;;;;;5.65;1.02;;;;;;;;;;5034911;28;19905;-76
2022/06/15 13:28:15;;;;;;;4.18;1.20;;;;;;;;;;5034871;28;20513;-77
2022/06/15 13:30:54;;;;;;;4.80;1.10;;;;;;;;;;5035470;28;20013;-77
2022/06/15 13:33:20;;;;;;;1.90;1.00;;;;;;;;;;5054710;28;20060;-76
2022/06/15 13:35:48;;;;;;;2.33;1.05;;;;;;;;;;5054455;28;20028;-76
2022/06/15 13:38:16;;;;;;;5.90;0.90;;;;;;;;;;5054572;28;20025;-76
2022/06/15 13:40:54;;;;;;;5.15;1.08;;;;;;;;;;5053062;28;20068;-76
2022/06/15 13:43:21;;;;;;;3.10;1.48;;;;;;;;;;5054019;28;20113;-76
2022/06/15 13:45:48;;;;;;;3.60;1.00;;;;;;;;;;5054355;28;20021;-76
2022/06/15 13:48:15;;;;;;;3.20;1.02;;;;;;;;;;5054236;28;20017;-76
2022/06/15 13:50:46;;;;;;;3.03;0.90;;;;;;;;;;5053921;28;20037;-77
2022/06/15 13:53:16;;;;;;;3.03;0.93;;;;;;;;;;5054175;28;20420;-76
2022/06/15 13:55:47;;;;;;;5.07;0.90;;;;;;;;;;5054067;28;20116;-74
2022/06/15 13:58:26;;;;;;;4.10;1.10;;;;;;;;;;5054309;28;20090;-76
2022/06/15 14:01:01;;;;;;;1.90;0.90;;;;;;;;;;5053814;28;20036;-76
2022/06/15 14:03:27;;;;;;;1.95;0.73;;;;;;;;;;5054100;28;20033;-77
2022/06/15 14:06:02;;;;;;;2.85;0.90;;;;;;;;;;5054008;28;20036;-76
2022/06/15 14:08:48;;;;;;;5.43;1.23;;;;;;;;;;5053997;28;20083;-77
2022/06/15 14:11:32;;;;;;;2.15;1.00;;;;;;;;;;5053888;28;20412;-77
2022/06/15 14:14:16;;;;;;;2.83;0.93;;;;;;;;;;5053853;28;20155;-77
2022/06/15 14:16:51;;;;;;;3.47;1.08;;;;;;;;;;5053824;28;20017;-77
2022/06/15 14:19:29;;;;;;;2.58;0.80;;;;;;;;;;5053938;28;20060;-77
2022/06/15 14:22:22;;;;;;;3.38;1.08;;;;;;;;;;5053682;28;20025;-76
2022/06/15 14:24:49;;;;;;;4.78;1.02;;;;;;;;;;5051341;28;20028;-76
2022/06/15 14:27:25;;;;;;;5.22;1.20;;;;;;;;;;5053608;28;20017;-76
2022/06/15 14:29:51;;;;;;;4.40;0.90;;;;;;;;;;5053648;28;20075;-76
2022/06/15 14:32:25;;;;;;;5.50;1.00;;;;;;;;;;5053357;28;20040;-76
2022/06/15 14:34:51;;;;;;;4.18;0.88;;;;;;;;;;5053497;28;20505;-76
2022/06/15 14:37:22;;;;;;;4.25;1.35;;;;;;;;;;5053430;28;20033;-76
2022/06/15 14:39:51;;;;;;;2.97;1.00;;;;;;;;;;5053333;28;20036;-74
2022/06/15 14:42:26;;;;;;;7.50;0.90;;;;;;;;;;5053201;28;20111;-74
2022/06/15 14:44:53;;;;;;;2.28;0.80;;;;;;;;;;5053339;28;20100;-74
2022/06/15 14:47:21;;;;;;;2.40;0.80;;;;;;;;;;5053087;28;20054;-74
2022/06/15 14:49:54;;;;;;;3.13;1.10;;;;;;;;;;5052949;28;20056;-75
2022/06/15 14:52:28;;;;;;;1.30;0.80;;;;;;;;;;5053187;28;20063;-74
2022/06/15 14:55:03;;;;;;;2.67;1.25;;;;;;;;;;5050964;28;20028;-74
2022/06/15 14:57:30;;;;;;;3.60;0.98;;;;;;;;;;5052930;28;20029;-75
2022/06/15 14:59:58;;;;;;;2.08;0.90;;;;;;;;;;5052843;28;20037;-75
2022/06/15 15:02:36;;;;;;;3.95;1.17;;;;;;;;;;5051322;28;20033;-74
2022/06/15 15:05:02;;;;;;;2.33;1.00;;;;;;;;;;5053244;28;20479;-75
2022/06/15 15:10:24;;;;;;;4.50;0.82;;;;;;;;;;5052871;28;20087;-75
2022/06/15 15:12:50;;;;;;;7.38;1.33;;;;;;;;;;5052735;28;20021;-75
2022/06/15 15:15:17;;;;;;;6.30;1.20;;;;;;;;;;5052722;28;20025;-75
2022/06/15 15:18:09;;;;;;;2.70;0.90;;;;;;;;;;5052705;28;20037;-75